Time;durP1;ratioP1;P1;durP2;ratioP2;P2;SDS_P1;SDS_P2;PMS_P1;PMS_P2;Temp;Humidity;BMP_temperature;BMP_pressure;BME280_temperature;BME280_humidity;BME280_pressure;Samples;Min_cycle;Max_cycle;Signal;HPM_P1;HPM_P2
2022/09/30 00:01:08;;;;;;;18.90;11.57;;;6.50;99.90;;;;;;5075282;28;20466;-74
2022/09/30 00:03:35;;;;;;;21.35;11.68;;;6.50;99.90;;;;;;5061954;28;21045;-75
2022/09/30 00:06:03;;;;;;;18.08;11.70;;;6.50;99.90;;;;;;5052653;28;20400;-75
2022/09/30 00:08:29;;;;;;;18.85;12.20;;;6.70;99.90;;;;;;5052613;28;20953;-75
2022/09/30 00:11:12;;;;;;;17.00;11.57;;;6.80;99.90;;;;;;5051096;28;20451;-74
2022/09/30 00:13:39;;;;;;;21.17;12.70;;;6.90;99.90;;;;;;5052406;28;20403;-76
2022/09/30 00:16:05;;;;;;;17.93;12.70;;;6.80;99.90;;;;;;5052282;28;20385;-76
2022/09/30 00:18:31;;;;;;;20.15;13.05;;;6.60;99.90;;;;;;5052178;28;20389;-76
2022/09/30 00:20:57;;;;;;;23.55;13.30;;;6.60;99.90;;;;;;5052178;28;20397;-74
2022/09/30 00:23:23;;;;;;;23.90;13.57;;;6.50;99.90;;;;;;5052943;28;20389;-74
2022/09/30 00:25:49;;;;;;;21.35;13.35;;;6.40;99.90;;;;;;5054139;28;20916;-73
2022/09/30 00:28:15;;;;;;;22.10;13.07;;;6.40;99.90;;;;;;5052583;28;20401;-74
2022/09/30 00:30:41;;;;;;;21.35;13.15;;;6.40;99.90;;;;;;5052095;28;20381;-75
2022/09/30 00:33:07;;;;;;;19.85;13.20;;;6.40;99.90;;;;;;5051592;28;20405;-76
2022/09/30 00:35:33;;;;;;;27.80;14.23;;;6.30;99.90;;;;;;5051741;28;20416;-74
2022/09/30 00:37:59;;;;;;;18.23;12.60;;;6.30;99.90;;;;;;5050595;28;20965;-74
2022/09/30 00:40:25;;;;;;;21.08;13.18;;;6.40;99.90;;;;;;5051580;28;20389;-75
2022/09/30 00:42:51;;;;;;;22.42;13.93;;;6.50;99.90;;;;;;5051765;28;20385;-75
2022/09/30 00:45:16;;;;;;;22.25;14.48;;;6.60;99.90;;;;;;5051968;28;20558;-75
2022/09/30 00:47:53;;;;;;;25.20;16.10;;;6.50;99.90;;;;;;5051521;28;20493;-75
2022/09/30 00:50:41;;;;;;;24.25;15.30;;;6.50;99.90;;;;;;5051923;28;20864;-75
2022/09/30 00:53:20;;;;;;;27.75;15.50;;;6.50;99.90;;;;;;5051331;28;20385;-73
2022/09/30 00:56:06;;;;;;;24.50;14.85;;;6.60;99.90;;;;;;5051627;28;20469;-75
2022/09/30 00:58:56;;;;;;;24.30;15.70;;;6.60;99.90;;;;;;5051549;28;20392;-74
2022/09/30 01:01:22;;;;;;;22.05;15.05;;;6.60;99.90;;;;;;5051590;28;20424;-74
2022/09/30 01:03:55;;;;;;;23.17;15.63;;;6.60;99.90;;;;;;5051555;28;20392;-74
2022/09/30 01:06:23;;;;;;;21.15;14.95;;;6.70;99.90;;;;;;5051684;28;20947;-74
2022/09/30 01:08:49;;;;;;;27.15;14.82;;;6.70;99.90;;;;;;5051460;28;20482;-75
2022/09/30 01:11:16;;;;;;;25.63;14.93;;;6.70;99.90;;;;;;5051187;28;20468;-74
2022/09/30 01:13:45;;;;;;;23.88;15.38;;;6.70;99.90;;;;;;5052328;28;20427;-73
2022/09/30 01:16:47;;;;;;;22.92;15.55;;;6.70;99.90;;;;;;5052026;28;20381;-75
2022/09/30 01:19:31;;;;;;;21.15;14.48;;;6.70;99.90;;;;;;5052516;28;20377;-75
2022/09/30 01:22:09;;;;;;;27.08;15.30;;;6.70;99.90;;;;;;5052792;28;20732;-73
2022/09/30 01:25:11;;;;;;;21.63;14.45;;;6.70;99.90;;;;;;5053628;28;20391;-75
2022/09/30 01:27:49;;;;;;;21.95;13.80;;;6.70;99.90;;;;;;5052908;28;20409;-74
2022/09/30 01:30:36;;;;;;;19.77;14.00;;;6.90;99.90;;;;;;5053511;28;20400;-73
2022/09/30 01:33:20;;;;;;;23.70;14.05;;;6.90;99.90;;;;;;5052087;28;20781;-73
2022/09/30 01:35:59;;;;;;;18.20;13.68;;;6.80;99.90;;;;;;5051658;28;20501;-73
2022/09/30 01:38:28;;;;;;;22.00;15.13;;;6.70;99.90;;;;;;5052200;28;20385;-74
2022/09/30 01:41:03;;;;;;;22.80;15.10;;;6.70;99.90;;;;;;5051627;28;20396;-75
2022/09/30 01:44:03;;;;;;;19.77;14.40;;;6.60;99.90;;;;;;5050531;28;20909;-75
2022/09/30 01:47:00;;;;;;;21.23;14.05;;;6.60;99.90;;;;;;5051834;28;20742;-76
2022/09/30 01:49:52;;;;;;;21.77;14.23;;;6.60;99.90;;;;;;5031443;28;20507;-74
2022/09/30 01:52:39;;;;;;;21.95;15.10;;;6.70;99.90;;;;;;5050906;28;20471;-75
2022/09/30 01:55:12;;;;;;;21.75;14.77;;;6.70;99.90;;;;;;5050993;28;20506;-74
2022/09/30 01:58:06;;;;;;;21.65;14.82;;;6.70;99.90;;;;;;5051054;28;20385;-74
2022/09/30 02:00:35;;;;;;;24.42;15.55;;;6.60;99.90;;;;;;5050687;28;20381;-74
2022/09/30 02:03:18;;;;;;;22.60;15.25;;;6.60;99.90;;;;;;5051477;28;20385;-74
2022/09/30 02:05:56;;;;;;;23.58;14.80;;;6.60;99.90;;;;;;5050699;28;20420;-74
2022/09/30 02:08:36;;;;;;;21.45;15.70;;;6.60;99.90;;;;;;5050408;28;20920;-74
2022/09/30 02:11:17;;;;;;;23.15;15.32;;;6.60;99.90;;;;;;5053775;28;20381;-73
2022/09/30 02:14:04;;;;;;;21.40;15.18;;;6.50;99.90;;;;;;5054897;28;21017;-74
2022/09/30 02:16:39;;;;;;;22.20;16.02;;;6.50;99.90;;;;;;5054891;28;20439;-73
2022/09/30 02:19:19;;;;;;;24.65;16.35;;;6.50;99.90;;;;;;5054605;28;20954;-75
2022/09/30 02:21:53;;;;;;;22.85;15.50;;;6.50;99.90;;;;;;5054821;28;20426;-73
2022/09/30 02:24:23;;;;;;;26.73;16.70;;;6.50;99.90;;;;;;5055207;28;20823;-73
2022/09/30 02:26:49;;;;;;;21.45;15.43;;;6.50;99.90;;;;;;5055162;28;20816;-73
2022/09/30 02:29:23;;;;;;;20.15;14.70;;;6.50;99.90;;;;;;5054920;28;20421;-73
2022/09/30 02:31:52;;;;;;;20.15;14.90;;;6.60;99.90;;;;;;5055247;28;20446;-73
2022/09/30 02:34:26;;;;;;;20.30;15.20;;;6.60;99.90;;;;;;5055987;28;20389;-73
2022/09/30 02:37:14;;;;;;;22.40;15.60;;;6.60;99.90;;;;;;5055230;28;20715;-73
2022/09/30 02:39:59;;;;;;;30.77;15.98;;;6.60;99.90;;;;;;5054764;28;20837;-73
2022/09/30 02:42:27;;;;;;;24.80;16.10;;;6.60;99.90;;;;;;5054849;28;20472;-73
2022/09/30 02:44:59;;;;;;;20.48;14.40;;;6.60;99.90;;;;;;5053570;28;20484;-74
2022/09/30 02:48:06;;;;;;;19.85;14.50;;;6.60;99.90;;;;;;5055355;28;20833;-74
2022/09/30 02:50:53;;;;;;;22.45;16.00;;;6.60;99.90;;;;;;5054042;28;20932;-74
2022/09/30 02:53:42;;;;;;;21.47;14.50;;;6.60;99.90;;;;;;5053722;28;20441;-74
2022/09/30 02:56:23;;;;;;;21.05;15.25;;;6.80;99.90;;;;;;5054057;28;20407;-73
2022/09/30 02:58:51;;;;;;;20.90;14.63;;;6.80;99.90;;;;;;5054147;28;20404;-74
2022/09/30 03:01:17;;;;;;;19.48;14.50;;;6.70;99.90;;;;;;5053094;28;20726;-74
2022/09/30 03:03:56;;;;;;;19.90;14.80;;;6.60;99.90;;;;;;5053502;28;20389;-73
2022/09/30 03:06:22;;;;;;;21.65;14.95;;;6.60;99.90;;;;;;5053524;28;20390;-73
2022/09/30 03:08:48;;;;;;;20.07;13.80;;;6.70;99.90;;;;;;5053166;28;20431;-74
2022/09/30 03:11:20;;;;;;;22.70;14.23;;;6.70;99.90;;;;;;5053694;28;20416;-74
2022/09/30 03:13:52;;;;;;;18.70;13.80;;;6.60;99.90;;;;;;5054274;28;20861;-74
2022/09/30 03:16:32;;;;;;;20.43;14.40;;;6.60;99.90;;;;;;5054121;28;20435;-73
2022/09/30 03:19:16;;;;;;;24.27;15.00;;;6.60;99.90;;;;;;5054452;28;20479;-73
2022/09/30 03:22:06;;;;;;;24.17;14.18;;;6.60;99.90;;;;;;5053047;28;20553;-73
2022/09/30 03:25:00;;;;;;;18.05;13.77;;;6.50;99.90;;;;;;5053029;28;20422;-73
2022/09/30 03:27:39;;;;;;;18.60;13.95;;;6.50;99.90;;;;;;5052732;28;20405;-73
2022/09/30 03:30:36;;;;;;;20.55;14.05;;;6.50;99.90;;;;;;5053093;28;20852;-74
2022/09/30 03:33:22;;;;;;;19.07;13.80;;;6.60;99.90;;;;;;5048538;28;20389;-73
2022/09/30 03:36:05;;;;;;;17.65;13.98;;;6.50;99.90;;;;;;5053160;28;20384;-73
2022/09/30 03:38:38;;;;;;;17.58;12.32;;;6.60;99.90;;;;;;5052107;28;20849;-74
2022/09/30 03:41:10;;;;;;;21.73;12.70;;;6.60;99.90;;;;;;5052491;28;20451;-74
2022/09/30 03:43:43;;;;;;;18.17;13.30;;;6.60;99.90;;;;;;5053732;28;20399;-74
2022/09/30 03:46:25;;;;;;;17.77;12.70;;;6.60;99.90;;;;;;5052623;28;20389;-74
2022/09/30 03:48:55;;;;;;;19.98;13.23;;;6.60;99.90;;;;;;5052660;28;20927;-74
2022/09/30 03:51:23;;;;;;;17.17;13.15;;;6.60;99.90;;;;;;5052541;28;20389;-73
2022/09/30 03:53:49;;;;;;;15.77;12.98;;;6.60;99.90;;;;;;5052692;28;20387;-74
2022/09/30 03:56:27;;;;;;;17.85;13.40;;;6.50;99.90;;;;;;5052716;28;20377;-76
2022/09/30 03:58:53;;;;;;;17.20;13.05;;;6.50;99.90;;;;;;5052874;28;20796;-73
2022/09/30 04:01:20;;;;;;;15.38;12.70;;;6.50;99.90;;;;;;5052114;28;20397;-74
2022/09/30 04:03:51;;;;;;;19.27;13.02;;;6.50;99.90;;;;;;5052483;28;20387;-74
2022/09/30 04:06:17;;;;;;;18.77;13.80;;;6.40;99.90;;;;;;5052190;28;20398;-74
2022/09/30 04:08:43;;;;;;;18.52;14.20;;;6.40;99.90;;;;;;5051959;28;20410;-72
2022/09/30 04:11:09;;;;;;;18.90;13.03;;;6.40;99.90;;;;;;5051699;28;20461;-73
2022/09/30 04:13:35;;;;;;;19.90;13.52;;;6.40;99.90;;;;;;5052167;28;20378;-73
2022/09/30 04:16:00;;;;;;;17.10;13.50;;;6.40;99.90;;;;;;5052002;28;20719;-74
2022/09/30 04:18:26;;;;;;;19.10;13.47;;;6.30;99.90;;;;;;5052129;28;20502;-73
2022/09/30 04:20:52;;;;;;;20.90;14.10;;;6.30;99.90;;;;;;5051606;28;20979;-73
2022/09/30 04:23:17;;;;;;;17.67;13.00;;;6.30;99.90;;;;;;5052666;28;20834;-71
2022/09/30 04:25:50;;;;;;;17.67;13.43;;;6.40;99.90;;;;;;5051661;28;20511;-73
2022/09/30 04:28:15;;;;;;;18.75;13.45;;;6.40;99.90;;;;;;5051855;28;20428;-72
2022/09/30 04:30:41;;;;;;;17.43;13.43;;;6.40;99.90;;;;;;5051731;28;20382;-73
2022/09/30 04:33:06;;;;;;;17.40;13.90;;;6.40;99.90;;;;;;5051611;28;20382;-73
2022/09/30 04:35:32;;;;;;;19.40;13.47;;;6.40;99.90;;;;;;5052959;28;20385;-73
2022/09/30 04:37:57;;;;;;;17.60;12.90;;;6.40;99.90;;;;;;5059793;28;20396;-73
2022/09/30 04:40:24;;;;;;;18.50;13.40;;;6.40;99.90;;;;;;5064154;28;20408;-72
2022/09/30 04:42:49;;;;;;;16.65;12.93;;;6.40;99.90;;;;;;5063289;28;20388;-72
2022/09/30 04:45:15;;;;;;;18.03;13.40;;;6.40;99.90;;;;;;5058761;28;20389;-72
2022/09/30 04:47:44;;;;;;;22.00;15.17;;;6.40;99.90;;;;;;5059963;28;20877;-71
2022/09/30 04:50:09;;;;;;;21.13;13.48;;;6.40;99.90;;;;;;5055061;28;20405;-72
2022/09/30 04:52:37;;;;;;;22.10;13.95;;;6.40;99.90;;;;;;5058086;28;20868;-72
2022/09/30 04:55:03;;;;;;;20.70;14.60;;;6.40;99.90;;;;;;5051882;28;20390;-72
2022/09/30 04:57:28;;;;;;;18.55;13.00;;;6.40;99.90;;;;;;5033811;28;20398;-74
2022/09/30 04:59:54;;;;;;;19.05;13.18;;;6.40;99.90;;;;;;5049829;28;20789;-72
2022/09/30 05:02:19;;;;;;;21.30;14.05;;;6.50;99.90;;;;;;5051426;28;20829;-73
2022/09/30 05:04:45;;;;;;;18.40;13.60;;;6.50;99.90;;;;;;5051067;28;20408;-72
2022/09/30 05:07:11;;;;;;;21.03;14.30;;;6.40;99.90;;;;;;5050879;28;20617;-73
2022/09/30 05:09:37;;;;;;;20.37;13.53;;;6.40;99.90;;;;;;5051414;28;20475;-71
2022/09/30 05:12:03;;;;;;;22.05;13.68;;;6.40;99.90;;;;;;5050945;28;20468;-73
2022/09/30 05:14:29;;;;;;;21.80;14.60;;;6.40;99.90;;;;;;5050793;28;20392;-73
2022/09/30 05:16:55;;;;;;;23.45;14.00;;;6.40;99.90;;;;;;5051004;28;20409;-73
2022/09/30 05:19:20;;;;;;;19.35;13.55;;;6.40;99.90;;;;;;5050961;28;20424;-73
2022/09/30 05:21:46;;;;;;;20.57;13.57;;;6.40;99.90;;;;;;5050713;28;20464;-73
2022/09/30 05:24:12;;;;;;;19.40;13.37;;;6.40;99.90;;;;;;5051206;28;20408;-73
2022/09/30 05:26:39;;;;;;;19.83;13.00;;;6.50;99.90;;;;;;5051265;28;20417;-72
2022/09/30 05:29:05;;;;;;;21.55;12.98;;;6.50;99.90;;;;;;5049675;28;20406;-73
2022/09/30 05:31:30;;;;;;;18.35;12.65;;;6.50;99.90;;;;;;5055894;28;20743;-73
2022/09/30 05:33:56;;;;;;;18.83;13.55;;;6.50;99.90;;;;;;5054671;28;20384;-73
2022/09/30 05:36:21;;;;;;;18.00;13.10;;;6.50;99.90;;;;;;5051024;28;20766;-72
2022/09/30 05:38:51;;;;;;;24.58;15.38;;;6.40;99.90;;;;;;5052758;28;20382;-72
2022/09/30 05:41:18;;;;;;;22.10;13.80;;;6.50;99.90;;;;;;5052310;28;20898;-72
2022/09/30 05:43:46;;;;;;;22.23;14.93;;;6.40;99.90;;;;;;5053932;28;20389;-72
2022/09/30 05:46:13;;;;;;;18.67;12.90;;;6.50;99.90;;;;;;5058388;28;20466;-73
2022/09/30 05:48:39;;;;;;;21.95;14.70;;;6.50;99.90;;;;;;5055563;28;20438;-72
2022/09/30 05:51:04;;;;;;;19.90;13.30;;;6.50;99.90;;;;;;5054662;28;20874;-73
2022/09/30 05:53:33;;;;;;;21.38;14.50;;;6.60;99.90;;;;;;5054523;28;20527;-73
2022/09/30 05:55:59;;;;;;;18.37;14.70;;;6.60;99.90;;;;;;5054876;28;20380;-72
2022/09/30 05:58:26;;;;;;;22.52;16.38;;;6.50;99.90;;;;;;5054670;28;20774;-73
2022/09/30 06:00:52;;;;;;;26.52;18.45;;;6.60;99.90;;;;;;5054552;28;20389;-75
2022/09/30 06:03:18;;;;;;;24.08;15.20;;;6.60;99.90;;;;;;5055113;28;20743;-73
2022/09/30 06:05:44;;;;;;;22.88;14.55;;;6.60;99.90;;;;;;5054582;28;20407;-72
2022/09/30 06:08:10;;;;;;;21.33;13.80;;;6.70;99.90;;;;;;5054359;28;20416;-72
2022/09/30 06:10:42;;;;;;;20.65;14.63;;;6.70;99.90;;;;;;5055016;28;20417;-73
2022/09/30 06:13:08;;;;;;;20.63;14.07;;;6.80;99.90;;;;;;5054268;28;20418;-74
2022/09/30 06:15:36;;;;;;;21.93;13.80;;;6.90;99.90;;;;;;5054944;28;20385;-72
2022/09/30 06:18:02;;;;;;;19.13;14.52;;;6.90;99.90;;;;;;5054718;28;20814;-72
2022/09/30 06:20:28;;;;;;;24.73;15.13;;;6.90;99.90;;;;;;5054720;28;20397;-72
2022/09/30 06:22:53;;;;;;;22.67;14.77;;;7.00;99.90;;;;;;5054222;28;20385;-74
2022/09/30 06:25:20;;;;;;;20.63;14.17;;;7.00;99.90;;;;;;5054759;28;20389;-75
2022/09/30 06:27:46;;;;;;;24.00;14.50;;;7.10;99.90;;;;;;5056847;28;20421;-73
2022/09/30 06:30:12;;;;;;;20.83;13.20;;;7.10;99.90;;;;;;5055831;28;20930;-72
2022/09/30 06:32:38;;;;;;;19.10;13.85;;;7.20;99.90;;;;;;5056021;28;20412;-73
2022/09/30 06:35:04;;;;;;;24.25;14.88;;;7.20;99.90;;;;;;5054911;28;20686;-73
2022/09/30 06:37:29;;;;;;;21.48;14.10;;;7.30;99.90;;;;;;5054767;28;20528;-73
2022/09/30 06:39:55;;;;;;;19.67;14.20;;;7.30;99.90;;;;;;5053993;28;20393;-73
2022/09/30 06:42:23;;;;;;;23.20;14.70;;;7.30;99.90;;;;;;5053679;28;20471;-73
2022/09/30 06:44:50;;;;;;;18.27;14.02;;;7.40;99.90;;;;;;5054122;28;20421;-73
2022/09/30 06:47:16;;;;;;;29.20;14.90;;;7.40;99.90;;;;;;5053964;28;20413;-75
2022/09/30 06:49:42;;;;;;;23.27;14.63;;;7.50;99.90;;;;;;5053949;28;20386;-73
2022/09/30 06:52:13;;;;;;;22.98;14.95;;;7.60;99.90;;;;;;5054103;28;20472;-73
2022/09/30 06:54:42;;;;;;;19.20;13.88;;;7.70;99.90;;;;;;5054090;28;20389;-73
2022/09/30 06:57:08;;;;;;;22.80;14.30;;;7.80;99.90;;;;;;5055007;28;20382;-75
2022/09/30 06:59:33;;;;;;;19.95;14.95;;;7.80;99.90;;;;;;5054278;28;20384;-73
2022/09/30 07:01:59;;;;;;;22.13;14.48;;;7.90;99.90;;;;;;5053900;28;20415;-73
2022/09/30 07:04:25;;;;;;;19.43;13.80;;;7.90;99.90;;;;;;5053514;28;20443;-75
2022/09/30 07:06:51;;;;;;;19.50;14.30;;;8.00;99.90;;;;;;5053322;28;20381;-73
2022/09/30 07:09:16;;;;;;;19.53;12.60;;;8.10;99.90;;;;;;5053769;28;20382;-72
2022/09/30 07:11:42;;;;;;;17.08;13.07;;;8.40;98.50;;;;;;5053809;28;20374;-74
2022/09/30 07:14:09;;;;;;;18.58;13.90;;;8.30;96.30;;;;;;5053570;28;20431;-73
2022/09/30 07:16:35;;;;;;;22.60;14.60;;;8.30;98.00;;;;;;5052385;28;20467;-74
2022/09/30 07:19:02;;;;;;;22.33;14.18;;;8.40;98.40;;;;;;5053102;28;20420;-74
2022/09/30 07:21:29;;;;;;;18.95;12.82;;;8.50;97.40;;;;;;5052793;28;20512;-73
2022/09/30 07:23:57;;;;;;;20.55;13.80;;;8.60;94.10;;;;;;5053325;28;20386;-73
2022/09/30 07:26:23;;;;;;;19.35;14.55;;;8.80;91.90;;;;;;5053123;28;20378;-73
2022/09/30 07:28:50;;;;;;;22.10;13.93;;;8.80;92.70;;;;;;5051617;28;20943;-73
2022/09/30 07:31:18;;;;;;;22.63;12.88;;;8.90;91.60;;;;;;5053902;28;20401;-74
2022/09/30 07:33:45;;;;;;;16.52;12.38;;;8.90;90.30;;;;;;5054325;28;20390;-75
2022/09/30 07:36:11;;;;;;;18.73;12.80;;;8.90;89.90;;;;;;5052162;28;20472;-73
2022/09/30 07:38:39;;;;;;;20.55;13.60;;;9.00;88.70;;;;;;5054833;28;20464;-74
2022/09/30 07:41:11;;;;;;;23.13;12.98;;;9.10;88.70;;;;;;5052834;28;20467;-74
2022/09/30 07:43:38;;;;;;;23.40;14.20;;;9.20;88.00;;;;;;5041581;28;20434;-74
2022/09/30 07:46:04;;;;;;;24.50;15.40;;;9.30;88.80;;;;;;5037105;28;20757;-73
2022/09/30 07:48:42;;;;;;;20.43;14.30;;;9.40;88.30;;;;;;5038092;28;20435;-77
2022/09/30 07:51:12;;;;;;;21.70;13.80;;;9.50;85.90;;;;;;5050054;28;20412;-74
2022/09/30 07:53:39;;;;;;;19.00;14.50;;;9.50;84.10;;;;;;5049482;28;20929;-75
2022/09/30 07:56:06;;;;;;;20.98;14.48;;;9.60;82.70;;;;;;5051017;28;20381;-73
2022/09/30 07:58:32;;;;;;;23.05;15.80;;;9.60;82.80;;;;;;5051166;28;20809;-75
2022/09/30 08:00:58;;;;;;;24.58;17.73;;;9.80;84.00;;;;;;5050455;28;20393;-75
2022/09/30 08:03:23;;;;;;;21.85;15.68;;;9.90;83.80;;;;;;5050679;28;20754;-75
2022/09/30 08:05:49;;;;;;;21.57;15.40;;;10.00;81.00;;;;;;5051094;28;20808;-74
2022/09/30 08:08:16;;;;;;;26.27;16.83;;;10.10;79.60;;;;;;5048986;28;20420;-76
2022/09/30 08:10:42;;;;;;;24.05;14.85;;;10.20;80.20;;;;;;5053577;28;20412;-76
2022/09/30 08:13:09;;;;;;;25.75;14.82;;;10.30;76.10;;;;;;5055721;28;20421;-77
2022/09/30 08:15:34;;;;;;;20.48;14.15;;;10.40;75.60;;;;;;5051297;28;20730;-75
2022/09/30 08:18:00;;;;;;;21.10;14.80;;;10.50;74.90;;;;;;5050120;28;20390;-75
2022/09/30 08:20:26;;;;;;;19.90;14.77;;;10.50;72.90;;;;;;5049394;28;20397;-76
2022/09/30 08:22:55;;;;;;;23.02;15.45;;;10.50;74.90;;;;;;5050377;28;20914;-75
2022/09/30 08:25:22;;;;;;;25.83;15.60;;;10.70;74.70;;;;;;5049745;28;20398;-75
2022/09/30 08:27:48;;;;;;;22.05;14.15;;;10.90;72.90;;;;;;5049728;28;20432;-75
2022/09/30 08:30:13;;;;;;;20.65;14.50;;;10.90;71.90;;;;;;5050680;28;20385;-75
2022/09/30 08:32:39;;;;;;;19.63;14.43;;;11.10;69.80;;;;;;5050047;28;20498;-76
2022/09/30 08:35:05;;;;;;;23.27;13.60;;;11.20;66.80;;;;;;5050829;28;20869;-74
2022/09/30 08:37:31;;;;;;;24.20;14.50;;;11.30;66.80;;;;;;5050571;28;20478;-74
2022/09/30 08:39:56;;;;;;;20.47;13.80;;;11.30;65.40;;;;;;5051846;28;20401;-75
2022/09/30 08:42:44;;;;;;;22.20;14.27;;;11.50;63.70;;;;;;5052017;28;20878;-74
2022/09/30 08:45:30;;;;;;;21.50;14.50;;;11.50;62.70;;;;;;5030700;28;20475;-77
2022/09/30 08:48:36;;;;;;;21.30;14.20;;;11.50;63.50;;;;;;5038796;28;20405;-75
2022/09/30 08:51:23;;;;;;;24.45;15.90;;;11.80;62.70;;;;;;5049622;28;20397;-76
2022/09/30 08:53:50;;;;;;;25.58;15.55;;;11.80;60.70;;;;;;5045836;28;20405;-73
2022/09/30 08:56:29;;;;;;;25.17;15.70;;;11.90;60.00;;;;;;5049488;28;20484;-73
2022/09/30 08:59:03;;;;;;;24.95;15.48;;;12.00;57.50;;;;;;5049931;28;20373;-75
2022/09/30 09:01:36;;;;;;;27.13;15.43;;;12.10;58.00;;;;;;5049039;28;20514;-74
2022/09/30 09:04:04;;;;;;;27.35;16.08;;;12.20;57.40;;;;;;5049719;28;20385;-74
2022/09/30 09:06:38;;;;;;;27.20;15.98;;;12.30;57.90;;;;;;5049796;28;20412;-75
2022/09/30 09:09:31;;;;;;;25.55;16.25;;;12.30;59.40;;;;;;5049831;28;20551;-75
2022/09/30 09:12:05;;;;;;;33.83;19.50;;;12.50;58.30;;;;;;5050799;28;20424;-74
2022/09/30 09:15:18;;;;;;;25.80;16.13;;;12.70;56.40;;;;;;5050739;28;20417;-74
2022/09/30 09:18:28;;;;;;;29.07;15.20;;;12.80;54.40;;;;;;5051026;28;20386;-74
2022/09/30 09:20:59;;;;;;;23.97;16.80;;;12.90;51.90;;;;;;5011496;28;20399;-74
2022/09/30 09:23:28;;;;;;;25.30;15.93;;;12.90;50.10;;;;;;5027929;28;20417;-74
2022/09/30 09:25:54;;;;;;;25.92;15.57;;;12.90;51.20;;;;;;5020541;28;20791;-73
2022/09/30 09:28:27;;;;;;;23.38;15.35;;;13.00;48.50;;;;;;5040969;28;20446;-71
2022/09/30 09:30:59;;;;;;;23.67;15.52;;;13.10;49.10;;;;;;5054404;28;21468;-70
2022/09/30 09:33:29;;;;;;;25.10;16.60;;;13.10;49.90;;;;;;5062384;28;20416;-74
2022/09/30 09:36:16;;;;;;;24.67;16.47;;;13.20;49.70;;;;;;5060608;28;20386;-73
2022/09/30 09:38:44;;;;;;;26.25;16.95;;;13.20;47.90;;;;;;5048872;28;20439;-75
2022/09/30 09:41:29;;;;;;;27.95;17.20;;;13.40;48.70;;;;;;5045578;28;20405;-73
2022/09/30 09:44:00;;;;;;;27.55;17.65;;;13.50;47.70;;;;;;5048903;28;20384;-73
2022/09/30 09:46:44;;;;;;;30.48;18.02;;;13.70;46.40;;;;;;5048264;28;20722;-72
2022/09/30 09:49:12;;;;;;;26.05;18.20;;;13.60;46.50;;;;;;5048395;28;20505;-72
2022/09/30 09:51:47;;;;;;;27.83;18.03;;;13.70;46.80;;;;;;5049368;28;20514;-75
2022/09/30 09:54:17;;;;;;;24.58;18.77;;;13.70;47.10;;;;;;5048792;28;20405;-73
2022/09/30 09:56:43;;;;;;;28.40;18.20;;;13.80;46.00;;;;;;5049316;28;20390;-74
2022/09/30 09:59:17;;;;;;;25.67;18.17;;;13.90;46.40;;;;;;5049576;28;20477;-71
2022/09/30 10:01:45;;;;;;;27.33;19.95;;;14.00;46.50;;;;;;5047995;28;20724;-73
2022/09/30 10:04:20;;;;;;;28.05;19.63;;;14.00;45.90;;;;;;5049614;28;20409;-73
2022/09/30 10:07:01;;;;;;;26.05;18.55;;;13.90;46.00;;;;;;5048547;28;20397;-73
2022/09/30 10:09:28;;;;;;;30.55;19.60;;;14.00;46.20;;;;;;5048831;28;20805;-73
2022/09/30 10:12:06;;;;;;;28.77;20.17;;;14.10;46.20;;;;;;5045816;28;20458;-73
2022/09/30 10:14:47;;;;;;;29.67;18.70;;;14.10;45.60;;;;;;5048296;28;20393;-72
2022/09/30 10:17:39;;;;;;;25.55;18.50;;;14.30;45.90;;;;;;5028028;28;20886;-72
2022/09/30 10:20:14;;;;;;;29.85;19.95;;;14.50;43.30;;;;;;5040759;28;20795;-72
2022/09/30 10:22:39;;;;;;;30.98;18.80;;;14.50;43.40;;;;;;5028104;28;20410;-72
2022/09/30 10:25:16;;;;;;;27.80;18.95;;;14.40;43.80;;;;;;5028635;28;20927;-73
2022/09/30 10:28:02;;;;;;;26.33;19.00;;;14.40;43.60;;;;;;5028814;28;20973;-72
2022/09/30 10:30:39;;;;;;;27.08;18.42;;;14.50;43.90;;;;;;5028614;28;20390;-72
2022/09/30 10:33:18;;;;;;;23.73;16.75;;;14.60;42.50;;;;;;5036998;28;20393;-73
2022/09/30 10:36:00;;;;;;;24.17;18.17;;;14.70;43.60;;;;;;5050446;28;20476;-73
2022/09/30 10:38:28;;;;;;;28.25;17.80;;;14.70;43.70;;;;;;5051910;28;20381;-73
2022/09/30 10:40:55;;;;;;;25.73;17.67;;;14.80;42.80;;;;;;5050943;28;20401;-72
2022/09/30 10:43:39;;;;;;;27.50;16.52;;;15.00;42.70;;;;;;5051749;28;20386;-72
2022/09/30 10:46:07;;;;;;;23.35;16.80;;;15.10;40.70;;;;;;5051513;28;20423;-74
2022/09/30 10:48:36;;;;;;;22.13;16.30;;;15.20;39.40;;;;;;5050468;28;20432;-73
2022/09/30 10:51:03;;;;;;;23.17;16.52;;;15.10;38.60;;;;;;5051755;28;20866;-73
2022/09/30 10:53:42;;;;;;;22.87;15.50;;;15.10;38.70;;;;;;5047447;28;20443;-74
2022/09/30 10:56:08;;;;;;;23.00;15.10;;;15.20;38.10;;;;;;5050004;28;20427;-72
2022/09/30 10:58:41;;;;;;;23.20;15.77;;;15.20;37.60;;;;;;5052824;28;20388;-73
2022/09/30 11:01:15;;;;;;;25.38;16.20;;;15.30;37.60;;;;;;5052731;28;20421;-73
2022/09/30 11:04:06;;;;;;;25.17;17.45;;;15.60;36.90;;;;;;5052790;28;20488;-73
2022/09/30 11:06:37;;;;;;;25.73;15.20;;;15.70;36.10;;;;;;5053828;28;20435;-73
2022/09/30 11:09:16;;;;;;;23.20;14.57;;;15.90;35.60;;;;;;5053721;28;20452;-73
2022/09/30 11:11:52;;;;;;;21.33;13.90;;;16.00;34.20;;;;;;5053977;28;20382;-73
2022/09/30 11:14:41;;;;;;;20.05;13.35;;;16.00;33.80;;;;;;5053684;28;20390;-73
2022/09/30 11:17:22;;;;;;;21.57;13.80;;;15.80;34.70;;;;;;5054069;28;20466;-73
2022/09/30 11:20:16;;;;;;;22.58;14.65;;;15.80;33.90;;;;;;5053685;28;20389;-73
2022/09/30 11:22:54;;;;;;;20.38;14.23;;;16.00;33.30;;;;;;5050195;28;20401;-73
2022/09/30 11:26:02;;;;;;;20.65;13.70;;;16.00;31.60;;;;;;5052264;28;20412;-73
2022/09/30 11:28:43;;;;;;;17.83;13.30;;;16.00;32.40;;;;;;5037363;28;20459;-73
2022/09/30 11:31:11;;;;;;;17.80;13.32;;;16.30;32.10;;;;;;5053790;28;20385;-73
2022/09/30 11:34:06;;;;;;;19.50;12.90;;;16.40;31.30;;;;;;5054765;28;20526;-73
2022/09/30 11:37:16;;;;;;;19.90;13.65;;;16.50;31.70;;;;;;5050000;28;20395;-72
2022/09/30 11:40:08;;;;;;;22.27;12.10;;;16.90;30.90;;;;;;5055684;28;20897;-72
2022/09/30 11:42:58;;;;;;;19.75;11.90;;;17.20;28.70;;;;;;5059086;28;20389;-72
2022/09/30 11:45:24;;;;;;;18.58;10.80;;;17.30;27.80;;;;;;5057968;28;20380;-72
2022/09/30 11:48:06;;;;;;;16.35;10.75;;;17.10;26.50;;;;;;5052842;28;20485;-72
2022/09/30 11:51:09;;;;;;;16.50;11.40;;;17.10;27.60;;;;;;5052676;28;20381;-73
2022/09/30 11:54:07;;;;;;;16.77;11.40;;;17.00;27.40;;;;;;5053148;28;20789;-73
2022/09/30 11:56:59;;;;;;;16.48;11.82;;;16.90;27.60;;;;;;5052344;28;20374;-73
2022/09/30 11:59:40;;;;;;;20.15;12.23;;;16.50;28.40;;;;;;5052479;28;20377;-72
2022/09/30 12:02:25;;;;;;;17.95;11.43;;;16.50;28.80;;;;;;5052241;28;20404;-72
2022/09/30 12:04:56;;;;;;;16.42;10.68;;;16.50;29.00;;;;;;5052552;28;20393;-72
2022/09/30 12:07:36;;;;;;;17.50;11.00;;;16.50;29.00;;;;;;5052939;28;20381;-73
2022/09/30 12:10:34;;;;;;;19.07;11.23;;;16.50;29.20;;;;;;5052401;28;21076;-72
2022/09/30 12:13:13;;;;;;;13.65;10.15;;;16.50;29.50;;;;;;5048547;28;20799;-73
2022/09/30 12:15:43;;;;;;;14.45;10.65;;;16.50;28.30;;;;;;5052669;28;20773;-74
2022/09/30 12:18:16;;;;;;;14.55;9.75;;;16.60;28.50;;;;;;5052305;28;20751;-73
2022/09/30 12:20:48;;;;;;;15.77;9.35;;;16.70;28.80;;;;;;5052289;28;20527;-74
2022/09/30 12:23:29;;;;;;;12.87;9.67;;;16.80;27.60;;;;;;5052475;28;20382;-74
2022/09/30 12:25:57;;;;;;;13.90;9.23;;;16.80;26.50;;;;;;5052484;28;20404;-77
2022/09/30 12:32:07;;;;;;;15.93;9.10;;;16.80;27.20;;;;;;5050015;28;20388;-73
2022/09/30 12:35:06;;;;;;;11.25;9.00;;;17.10;25.60;;;;;;5052839;28;20439;-73
2022/09/30 12:37:43;;;;;;;11.32;7.72;;;17.20;24.00;;;;;;5040366;28;20398;-74
2022/09/30 12:40:27;;;;;;;14.95;9.00;;;17.40;23.90;;;;;;5050549;28;20423;-72
2022/09/30 12:43:23;;;;;;;16.70;8.30;;;17.70;22.90;;;;;;5052287;28;20378;-73
2022/09/30 12:46:07;;;;;;;14.03;7.70;;;18.00;22.80;;;;;;5052211;28;20920;-73
2022/09/30 12:48:39;;;;;;;11.93;7.80;;;18.10;20.30;;;;;;5051161;28;20401;-73
2022/09/30 12:51:05;;;;;;;12.60;7.50;;;18.10;19.50;;;;;;5052603;28;20457;-73
2022/09/30 12:53:35;;;;;;;15.13;8.35;;;18.00;20.30;;;;;;5052012;28;20373;-71
2022/09/30 12:56:14;;;;;;;9.55;7.75;;;18.40;20.30;;;;;;5052765;28;20390;-73
2022/09/30 12:58:48;;;;;;;13.60;7.65;;;18.50;19.80;;;;;;5052110;28;20378;-73
2022/09/30 13:01:22;;;;;;;10.95;7.45;;;18.80;19.30;;;;;;5051749;28;20393;-74
2022/09/30 13:03:59;;;;;;;13.73;7.75;;;18.60;19.10;;;;;;5051506;28;20382;-72
2022/09/30 13:06:45;;;;;;;9.48;7.18;;;18.50;19.20;;;;;;5051634;28;20899;-75
2022/09/30 13:09:10;;;;;;;10.77;6.80;;;18.50;19.50;;;;;;5051060;28;20417;-72